Time;durP1;ratioP1;P1;durP2;ratioP2;P2;SDS_P1;SDS_P2;PMS_P1;PMS_P2;Temp;Humidity;BMP_temperature;BMP_pressure;BME280_temperature;BME280_humidity;BME280_pressure;Samples;Min_cycle;Max_cycle;Signal;HPM_P1;HPM_P2
2023/01/23 00:01:45;;;;;;;34.40;26.73;;;1.80;99.90;;;;;;5024661;28;20038;-81
2023/01/23 00:04:12;;;;;;;41.47;26.40;;;1.90;99.90;;;;;;5025064;28;20049;-81
2023/01/23 00:06:39;;;;;;;35.23;28.67;;;1.90;99.90;;;;;;4991806;28;20491;-81
2023/01/23 00:09:06;;;;;;;38.00;27.20;;;1.90;99.90;;;;;;5007702;28;20403;-81
2023/01/23 00:11:32;;;;;;;37.23;27.73;;;1.90;99.90;;;;;;4992157;28;20400;-81
2023/01/23 00:13:58;;;;;;;38.03;28.50;;;1.80;99.90;;;;;;4993041;28;20050;-81
2023/01/23 00:16:26;;;;;;;32.47;26.17;;;1.70;99.90;;;;;;5024296;28;20042;-81
2023/01/23 00:18:52;;;;;;;35.23;27.30;;;1.60;99.90;;;;;;5025072;28;20037;-81
2023/01/23 00:21:21;;;;;;;35.37;28.13;;;1.70;99.90;;;;;;5001632;28;20050;-81
2023/01/23 00:23:49;;;;;;;35.80;27.00;;;1.80;99.90;;;;;;5024459;28;20472;-82
2023/01/23 00:26:17;;;;;;;37.13;28.20;;;1.80;99.90;;;;;;5024419;28;20483;-81
2023/01/23 00:28:44;;;;;;;39.30;28.90;;;1.90;99.90;;;;;;4991673;28;20050;-81
2023/01/23 00:31:12;;;;;;;37.57;28.10;;;1.90;99.90;;;;;;5024172;28;20034;-81
2023/01/23 00:33:39;;;;;;;40.20;28.23;;;1.90;99.90;;;;;;5008169;28;20049;-81
2023/01/23 00:36:06;;;;;;;34.33;26.53;;;1.80;99.90;;;;;;5008381;28;20038;-81
2023/01/23 00:38:32;;;;;;;40.03;28.50;;;1.90;99.90;;;;;;4993098;28;20034;-81
2023/01/23 00:40:58;;;;;;;36.93;27.30;;;1.90;99.90;;;;;;5008376;28;20046;-81
2023/01/23 00:43:24;;;;;;;35.10;27.33;;;1.90;99.90;;;;;;4992687;28;20034;-82
2023/01/23 00:45:50;;;;;;;42.07;27.43;;;1.90;99.90;;;;;;5007978;28;20042;-81
2023/01/23 00:48:16;;;;;;;38.67;28.00;;;1.90;99.90;;;;;;5024697;28;20034;-82
2023/01/23 00:50:42;;;;;;;39.17;27.90;;;1.70;99.90;;;;;;5008193;28;20375;-81
2023/01/23 00:53:08;;;;;;;35.53;27.80;;;1.70;99.90;;;;;;4996119;28;20037;-81
2023/01/23 00:55:34;;;;;;;36.10;27.27;;;1.60;99.90;;;;;;4996982;28;20387;-81
2023/01/23 00:58:01;;;;;;;35.93;28.03;;;1.50;99.90;;;;;;5011887;28;20038;-81
2023/01/23 01:00:27;;;;;;;36.47;27.60;;;1.40;99.90;;;;;;4995467;28;20031;-82
2023/01/23 01:02:53;;;;;;;37.80;28.87;;;1.30;99.90;;;;;;5028480;28;20033;-81
2023/01/23 01:05:19;;;;;;;39.23;29.23;;;1.40;99.90;;;;;;4996789;28;20049;-81
2023/01/23 01:07:45;;;;;;;39.37;28.37;;;1.40;99.90;;;;;;4996978;28;20030;-81
2023/01/23 01:10:11;;;;;;;38.10;29.00;;;1.40;99.90;;;;;;4996876;28;20471;-81
2023/01/23 01:12:37;;;;;;;42.33;29.17;;;1.30;99.90;;;;;;5028024;28;20022;-81
2023/01/23 01:15:04;;;;;;;40.70;29.27;;;1.40;99.90;;;;;;5027721;28;20037;-81
2023/01/23 01:17:30;;;;;;;39.40;28.00;;;1.40;99.90;;;;;;5028183;28;20379;-82
2023/01/23 01:19:56;;;;;;;37.17;28.87;;;1.40;99.90;;;;;;4996430;28;20034;-81
2023/01/23 01:22:23;;;;;;;43.20;30.57;;;1.40;99.90;;;;;;4995612;28;20034;-81
2023/01/23 01:24:49;;;;;;;41.33;29.77;;;1.40;99.90;;;;;;4995255;28;20049;-81
2023/01/23 01:27:15;;;;;;;40.63;28.57;;;1.50;99.90;;;;;;4995869;28;20037;-81
2023/01/23 01:29:41;;;;;;;40.67;28.10;;;1.60;99.90;;;;;;4995351;28;20061;-81
2023/01/23 01:32:07;;;;;;;37.53;27.60;;;1.60;99.90;;;;;;5011136;28;20031;-81
2023/01/23 01:34:33;;;;;;;37.70;28.17;;;1.50;99.90;;;;;;4996695;28;20038;-81
2023/01/23 01:36:59;;;;;;;37.57;27.80;;;1.60;99.90;;;;;;4996366;28;20495;-81
2023/01/23 01:39:25;;;;;;;38.50;27.40;;;1.70;99.90;;;;;;5011560;28;20038;-81
2023/01/23 01:41:51;;;;;;;41.13;29.40;;;1.70;99.90;;;;;;4995955;28;20022;-81
2023/01/23 01:44:19;;;;;;;38.83;28.80;;;1.70;99.90;;;;;;4996203;28;20034;-81
2023/01/23 01:46:45;;;;;;;38.77;27.00;;;1.80;99.90;;;;;;4995739;28;20034;-81
2023/01/23 01:49:16;;;;;;;41.77;29.20;;;1.70;99.90;;;;;;4996149;28;20035;-81
2023/01/23 01:51:59;;;;;;;40.90;28.50;;;1.60;99.90;;;;;;4996075;28;20033;-81
2023/01/23 01:54:40;;;;;;;36.60;27.47;;;1.70;99.90;;;;;;5010619;28;20053;-81
2023/01/23 01:57:16;;;;;;;39.87;27.33;;;1.70;99.90;;;;;;5027662;28;20031;-81
2023/01/23 01:59:46;;;;;;;39.23;28.83;;;1.60;99.90;;;;;;5010725;28;20043;-81
2023/01/23 02:02:27;;;;;;;38.77;28.00;;;1.60;99.90;;;;;;5010636;28;20042;-81
2023/01/23 02:05:01;;;;;;;39.15;27.83;;;1.60;99.90;;;;;;5026286;28;20114;-81
2023/01/23 02:07:36;;;;;;;39.30;28.03;;;1.50;99.90;;;;;;5025621;28;20034;-81
2023/01/23 02:10:03;;;;;;;36.93;28.37;;;1.50;99.90;;;;;;5009804;28;20037;-81
2023/01/23 02:12:30;;;;;;;37.27;27.60;;;1.50;99.90;;;;;;4994645;28;20045;-81
2023/01/23 02:14:56;;;;;;;42.27;27.67;;;1.60;99.90;;;;;;5009907;28;20043;-81
2023/01/23 02:17:23;;;;;;;42.37;28.40;;;1.50;99.90;;;;;;4995169;28;20046;-81
2023/01/23 02:19:56;;;;;;;39.10;28.50;;;1.40;99.90;;;;;;5026866;28;20041;-81
2023/01/23 02:22:31;;;;;;;36.57;26.03;;;1.40;99.90;;;;;;4978367;28;20110;-81
2023/01/23 02:25:19;;;;;;;37.83;28.20;;;1.50;99.90;;;;;;4995017;28;20038;-81
2023/01/23 02:27:45;;;;;;;39.03;25.97;;;1.60;99.90;;;;;;4994046;28;20046;-81
2023/01/23 02:30:12;;;;;;;31.27;25.83;;;1.70;99.90;;;;;;4994834;28;20038;-81
2023/01/23 02:32:38;;;;;;;37.60;26.27;;;1.70;99.90;;;;;;4995355;28;20053;-81
2023/01/23 02:35:09;;;;;;;42.20;28.07;;;1.70;99.90;;;;;;4995320;28;20026;-81
2023/01/23 02:37:35;;;;;;;38.40;28.00;;;1.70;99.90;;;;;;5009540;28;20055;-81
2023/01/23 02:40:02;;;;;;;40.33;27.27;;;1.60;99.90;;;;;;5026424;28;20058;-81
2023/01/23 02:42:29;;;;;;;42.80;28.17;;;1.60;99.90;;;;;;5010108;28;20022;-81
2023/01/23 02:44:56;;;;;;;42.20;28.23;;;1.50;99.90;;;;;;5026660;28;20042;-81
2023/01/23 02:47:23;;;;;;;39.73;27.77;;;1.40;99.90;;;;;;5025616;28;20031;-81
2023/01/23 02:49:49;;;;;;;36.67;26.27;;;1.50;99.90;;;;;;5026564;28;20037;-81
2023/01/23 02:52:15;;;;;;;37.83;26.90;;;1.60;99.90;;;;;;4993443;28;20038;-81
2023/01/23 02:54:41;;;;;;;38.37;27.13;;;1.60;99.90;;;;;;5009891;28;20506;-81
2023/01/23 02:57:07;;;;;;;39.87;25.47;;;1.70;99.90;;;;;;5010016;28;20034;-81
2023/01/23 03:02:18;;;;;;;44.10;27.27;;;1.70;99.90;;;;;;5016825;28;20034;-81
2023/01/23 03:04:44;;;;;;;36.33;26.37;;;1.60;99.90;;;;;;4990070;28;20048;-81
2023/01/23 03:07:10;;;;;;;41.70;26.73;;;1.50;99.90;;;;;;4989669;28;20026;-82
2023/01/23 03:09:36;;;;;;;33.40;25.50;;;1.50;99.90;;;;;;4975773;28;20037;-81
2023/01/23 03:12:03;;;;;;;38.00;26.47;;;1.40;99.90;;;;;;4992940;28;20030;-82
2023/01/23 03:14:30;;;;;;;37.07;27.13;;;1.40;99.90;;;;;;4974857;28;20050;-82
2023/01/23 03:16:57;;;;;;;42.07;28.10;;;1.40;99.90;;;;;;4991002;28;20035;-82
2023/01/23 03:19:24;;;;;;;34.57;24.67;;;1.40;99.90;;;;;;4992673;28;20022;-81
2023/01/23 03:21:50;;;;;;;38.60;28.00;;;1.40;99.90;;;;;;4991212;28;20037;-82
2023/01/23 03:24:16;;;;;;;38.50;26.50;;;1.40;99.90;;;;;;4991221;28;20042;-82
2023/01/23 03:26:44;;;;;;;39.43;27.27;;;1.40;99.90;;;;;;4991192;28;20526;-82
2023/01/23 03:32:00;;;;;;;36.33;26.37;;;1.40;99.90;;;;;;5005771;28;20033;-82
2023/01/23 03:34:27;;;;;;;41.10;27.40;;;1.40;99.90;;;;;;5007478;28;20057;-81
2023/01/23 03:36:53;;;;;;;39.20;27.67;;;1.40;99.90;;;;;;4992909;28;20022;-81
2023/01/23 03:42:04;;;;;;;38.77;26.57;;;1.50;99.90;;;;;;4995928;28;20045;-81
2023/01/23 03:44:30;;;;;;;42.90;27.40;;;1.40;99.90;;;;;;4992726;28;20038;-81
2023/01/23 03:46:56;;;;;;;39.57;26.53;;;1.40;99.90;;;;;;4993517;28;20043;-81
2023/01/23 03:49:22;;;;;;;46.60;26.13;;;1.40;99.90;;;;;;4993953;28;20027;-81
2023/01/23 03:51:48;;;;;;;35.40;24.77;;;1.40;99.90;;;;;;4993542;28;20027;-81
2023/01/23 03:54:14;;;;;;;32.10;24.23;;;1.40;99.90;;;;;;4993853;28;20044;-81
2023/01/23 03:56:41;;;;;;;32.20;24.33;;;1.50;99.90;;;;;;4993640;28;20026;-81
2023/01/23 03:59:08;;;;;;;34.77;25.10;;;1.40;99.90;;;;;;4993805;28;20045;-81
2023/01/23 04:01:34;;;;;;;21.37;16.73;;;1.40;99.90;;;;;;4993170;28;20042;-81
2023/01/23 04:04:00;;;;;;;35.87;24.90;;;1.40;99.90;;;;;;4992492;28;20050;-81
2023/01/23 04:06:26;;;;;;;30.77;23.13;;;1.40;99.90;;;;;;4993304;28;20038;-81
2023/01/23 04:08:52;;;;;;;35.83;24.57;;;1.40;99.90;;;;;;4992405;28;20031;-81
2023/01/23 04:11:18;;;;;;;33.07;24.70;;;1.50;99.90;;;;;;4976019;28;20396;-81
2023/01/23 04:13:45;;;;;;;34.63;23.00;;;1.40;99.90;;;;;;4992317;28;20035;-81
2023/01/23 04:16:11;;;;;;;28.50;22.53;;;1.50;99.90;;;;;;4991971;28;20046;-81
2023/01/23 04:18:37;;;;;;;32.47;24.30;;;1.50;99.90;;;;;;4992333;28;20053;-80
2023/01/23 04:21:04;;;;;;;29.17;22.83;;;1.50;99.90;;;;;;4991880;28;20041;-80
2023/01/23 04:23:30;;;;;;;26.67;19.47;;;1.50;99.90;;;;;;4992090;28;20050;-80
2023/01/23 04:25:56;;;;;;;31.27;23.77;;;1.50;99.90;;;;;;4991840;28;20034;-81
2023/01/23 04:28:22;;;;;;;31.80;23.67;;;1.50;99.90;;;;;;5024522;28;20503;-81
2023/01/23 04:30:51;;;;;;;30.77;22.53;;;1.50;99.90;;;;;;4991754;28;20034;-81
2023/01/23 04:33:18;;;;;;;26.77;20.37;;;1.50;99.90;;;;;;5008341;28;20387;-81
2023/01/23 04:35:55;;;;;;;35.67;24.53;;;1.40;99.90;;;;;;5024360;28;20025;-81
2023/01/23 04:38:22;;;;;;;35.27;25.43;;;1.50;99.90;;;;;;4991510;28;20364;-81
2023/01/23 04:40:48;;;;;;;32.60;24.13;;;1.50;99.90;;;;;;4993220;28;20027;-81
2023/01/23 04:43:14;;;;;;;26.67;21.57;;;1.50;99.90;;;;;;4993342;28;20034;-81
2023/01/23 04:45:41;;;;;;;32.90;23.93;;;1.60;99.90;;;;;;5024341;28;20053;-81
2023/01/23 04:48:07;;;;;;;29.90;23.17;;;1.50;99.90;;;;;;4993279;28;20030;-81
2023/01/23 04:50:33;;;;;;;31.43;23.10;;;1.50;99.90;;;;;;4992859;28;20038;-81
2023/01/23 04:53:00;;;;;;;34.53;24.33;;;1.60;99.90;;;;;;4993159;28;20030;-80
2023/01/23 04:55:27;;;;;;;27.87;18.60;;;1.50;99.90;;;;;;4992316;28;20036;-80
2023/01/23 04:57:53;;;;;;;24.10;18.70;;;1.50;99.90;;;;;;4993060;28;20471;-80
2023/01/23 05:00:20;;;;;;;17.00;15.37;;;1.50;99.90;;;;;;4992628;28;20029;-81
2023/01/23 05:02:49;;;;;;;30.23;21.87;;;1.50;99.90;;;;;;4991693;28;20033;-81
2023/01/23 05:05:20;;;;;;;33.33;23.13;;;1.50;99.90;;;;;;5023802;28;20469;-81
2023/01/23 05:07:46;;;;;;;101.38;25.35;;;1.50;99.90;;;;;;4991943;28;20042;-81
2023/01/23 05:10:13;;;;;;;33.40;21.80;;;1.50;99.90;;;;;;4992946;28;20042;-81
2023/01/23 05:12:39;;;;;;;24.63;19.60;;;1.60;99.90;;;;;;4993134;28;20045;-80
2023/01/23 05:15:07;;;;;;;29.00;23.13;;;1.60;99.90;;;;;;4992498;28;20030;-81
2023/01/23 05:17:33;;;;;;;34.70;23.53;;;1.60;99.90;;;;;;4991535;28;20053;-80
2023/01/23 05:19:59;;;;;;;32.13;23.33;;;1.50;99.90;;;;;;4992725;28;20045;-81
2023/01/23 05:22:25;;;;;;;25.10;20.33;;;1.50;99.90;;;;;;4993065;28;20034;-81
2023/01/23 05:24:52;;;;;;;30.30;21.13;;;1.60;99.90;;;;;;4992734;28;20038;-81
2023/01/23 05:27:18;;;;;;;92.43;24.67;;;1.60;99.90;;;;;;4992586;28;20038;-81
2023/01/23 05:29:44;;;;;;;30.73;22.80;;;1.60;99.90;;;;;;4992731;28;20038;-81
2023/01/23 05:32:10;;;;;;;17.63;15.57;;;1.60;99.90;;;;;;4992034;28;20042;-81
2023/01/23 05:34:36;;;;;;;25.17;18.67;;;1.60;99.90;;;;;;4991808;28;20065;-81
2023/01/23 05:37:02;;;;;;;17.97;14.93;;;1.60;99.90;;;;;;4992786;28;20030;-80
2023/01/23 05:39:31;;;;;;;27.77;20.97;;;1.50;99.90;;;;;;5009680;28;20365;-80
2023/01/23 05:41:57;;;;;;;33.03;22.67;;;1.50;99.90;;;;;;4994582;28;20035;-81
2023/01/23 05:44:23;;;;;;;27.53;18.80;;;1.60;99.90;;;;;;5011142;28;20050;-81
2023/01/23 05:46:49;;;;;;;25.93;22.03;;;1.50;99.90;;;;;;5010838;28;20057;-81
2023/01/23 05:49:15;;;;;;;32.20;22.93;;;1.50;99.90;;;;;;5027700;28;20034;-81
2023/01/23 05:51:41;;;;;;;29.73;22.57;;;1.60;99.90;;;;;;4996146;28;20041;-81
2023/01/23 05:54:08;;;;;;;58.30;23.13;;;1.60;99.90;;;;;;4996281;28;20034;-81
2023/01/23 05:56:34;;;;;;;52.73;22.97;;;1.50;99.90;;;;;;5011170;28;20030;-80
2023/01/23 05:59:02;;;;;;;36.23;23.50;;;1.60;99.90;;;;;;4996136;28;20030;-81
2023/01/23 06:01:28;;;;;;;27.27;21.47;;;1.60;99.90;;;;;;4995134;28;20105;-81
2023/01/23 06:03:54;;;;;;;31.93;21.20;;;1.60;99.90;;;;;;4995811;28;20030;-81
2023/01/23 06:06:20;;;;;;;16.77;14.50;;;1.60;99.90;;;;;;4996052;28;20046;-81
2023/01/23 06:08:46;;;;;;;41.07;22.13;;;1.60;99.90;;;;;;4995822;28;20045;-81
2023/01/23 06:11:13;;;;;;;161.00;29.03;;;1.50;99.90;;;;;;4995945;28;20405;-81
2023/01/23 06:13:39;;;;;;;29.70;21.80;;;1.60;99.90;;;;;;4994609;28;20049;-80
2023/01/23 06:16:05;;;;;;;31.87;21.47;;;1.60;99.90;;;;;;4995027;28;20411;-81
2023/01/23 06:18:31;;;;;;;30.13;21.97;;;1.60;99.90;;;;;;5027090;28;20038;-81
2023/01/23 06:20:59;;;;;;;13.23;12.03;;;1.70;99.90;;;;;;5027207;28;20041;-80
2023/01/23 06:23:26;;;;;;;13.47;12.17;;;1.60;99.90;;;;;;4994468;28;20034;-80
2023/01/23 06:25:52;;;;;;;32.60;22.67;;;1.50;99.90;;;;;;4995427;28;20073;-81
2023/01/23 06:28:19;;;;;;;36.70;23.37;;;1.50;99.90;;;;;;4995490;28;20046;-81
2023/01/23 06:30:45;;;;;;;41.40;24.87;;;1.60;99.90;;;;;;5009592;28;20510;-81
2023/01/23 06:33:11;;;;;;;29.90;22.63;;;1.60;99.90;;;;;;5026950;28;20026;-81
2023/01/23 06:35:37;;;;;;;22.10;18.70;;;1.60;99.90;;;;;;5026971;28;20045;-81
2023/01/23 06:38:03;;;;;;;12.23;11.10;;;1.60;99.90;;;;;;4995314;28;20022;-81
2023/01/23 06:40:29;;;;;;;28.93;20.10;;;1.60;99.90;;;;;;4995306;28;20033;-81
2023/01/23 06:42:55;;;;;;;29.00;21.73;;;1.60;99.90;;;;;;4995310;28;20030;-81
2023/01/23 06:45:21;;;;;;;31.53;23.20;;;1.60;99.90;;;;;;5025744;28;20037;-81
2023/01/23 06:47:47;;;;;;;29.63;23.20;;;1.60;99.90;;;;;;4995302;28;20030;-81
2023/01/23 06:50:14;;;;;;;25.57;20.40;;;1.60;99.90;;;;;;4994843;28;20034;-81
2023/01/23 06:52:40;;;;;;;31.17;22.60;;;1.60;99.90;;;;;;4995115;28;20038;-81
2023/01/23 06:55:07;;;;;;;41.80;22.57;;;1.60;99.90;;;;;;5026638;28;20037;-80
2023/01/23 06:57:33;;;;;;;23.37;19.23;;;1.60;99.90;;;;;;4995366;28;20452;-81
2023/01/23 06:59:59;;;;;;;28.67;22.60;;;1.60;99.90;;;;;;5026260;28;20038;-81
2023/01/23 07:02:25;;;;;;;51.03;23.83;;;1.60;99.90;;;;;;4994356;28;20106;-81
2023/01/23 07:04:51;;;;;;;16.33;14.80;;;1.60;99.90;;;;;;5009915;28;20046;-81
2023/01/23 07:07:17;;;;;;;29.40;18.87;;;1.60;99.90;;;;;;5026405;28;20053;-81
2023/01/23 07:09:44;;;;;;;27.40;21.80;;;1.60;99.90;;;;;;5009846;28;20041;-81
2023/01/23 07:12:10;;;;;;;27.17;19.83;;;1.60;99.90;;;;;;4994837;28;20030;-81
2023/01/23 07:14:36;;;;;;;30.20;22.77;;;1.60;99.90;;;;;;4994169;28;20053;-80
2023/01/23 07:17:02;;;;;;;29.47;21.57;;;1.60;99.90;;;;;;4994217;28;20049;-81
2023/01/23 07:19:28;;;;;;;26.33;20.90;;;1.60;99.90;;;;;;5026065;28;20033;-80
2023/01/23 07:21:54;;;;;;;41.23;21.87;;;1.60;99.90;;;;;;5023798;28;20069;-80
2023/01/23 07:24:20;;;;;;;20.53;17.07;;;1.70;99.90;;;;;;5009511;28;20030;-80
2023/01/23 07:26:46;;;;;;;28.37;21.90;;;1.70;99.90;;;;;;5009514;28;20046;-81
2023/01/23 07:29:13;;;;;;;31.07;22.53;;;1.70;99.90;;;;;;5025213;28;20057;-81
2023/01/23 07:31:39;;;;;;;36.90;23.67;;;1.70;99.90;;;;;;4994026;28;20398;-80
2023/01/23 07:34:05;;;;;;;31.30;22.70;;;1.70;99.90;;;;;;5025679;28;20026;-81
2023/01/23 07:36:31;;;;;;;33.17;22.87;;;1.80;99.90;;;;;;5009334;28;20038;-81
2023/01/23 07:38:57;;;;;;;36.40;24.07;;;1.80;99.90;;;;;;5025846;28;20376;-81
2023/01/23 07:41:24;;;;;;;35.00;24.03;;;1.80;99.90;;;;;;5009095;28;20030;-81
2023/01/23 07:43:50;;;;;;;33.57;24.10;;;1.90;99.90;;;;;;5008921;28;20030;-81
2023/01/23 07:46:16;;;;;;;30.90;23.73;;;1.90;99.90;;;;;;5008591;28;20403;-81
2023/01/23 07:48:42;;;;;;;39.10;23.07;;;1.90;99.90;;;;;;4993876;28;20034;-81
2023/01/23 07:51:08;;;;;;;30.47;24.77;;;1.90;99.90;;;;;;4994019;28;20388;-81
2023/01/23 07:53:34;;;;;;;34.80;24.33;;;1.90;99.90;;;;;;4993903;28;20053;-81
2023/01/23 07:56:03;;;;;;;32.63;23.70;;;2.00;99.90;;;;;;4992579;28;20038;-81
2023/01/23 07:58:29;;;;;;;31.20;23.70;;;2.00;99.90;;;;;;4992062;28;20034;-81
2023/01/23 08:00:56;;;;;;;36.53;25.37;;;2.00;99.90;;;;;;5024552;28;20388;-81
2023/01/23 08:03:22;;;;;;;32.33;23.60;;;2.00;99.90;;;;;;5024756;28;20045;-81
2023/01/23 08:05:48;;;;;;;32.67;23.30;;;2.00;99.90;;;;;;4993920;28;20494;-81
2023/01/23 08:08:15;;;;;;;48.27;24.23;;;2.00;99.90;;;;;;5008744;28;20031;-81
2023/01/23 08:10:41;;;;;;;33.33;24.83;;;2.00;99.90;;;;;;5024966;28;20034;-81
2023/01/23 08:13:07;;;;;;;36.00;25.23;;;2.10;99.90;;;;;;5008551;28;20045;-81
2023/01/23 08:15:33;;;;;;;36.67;25.57;;;2.00;99.90;;;;;;5024677;28;20480;-81
2023/01/23 08:17:59;;;;;;;56.07;25.63;;;2.00;99.90;;;;;;4992350;28;20070;-81
2023/01/23 08:20:25;;;;;;;29.10;22.97;;;2.00;99.90;;;;;;4991563;28;20034;-81
2023/01/23 08:22:51;;;;;;;29.30;21.80;;;2.00;99.90;;;;;;4993461;28;20038;-81
2023/01/23 08:25:17;;;;;;;27.03;21.23;;;2.00;99.90;;;;;;4993179;28;20387;-81
2023/01/23 08:27:43;;;;;;;29.20;22.07;;;1.90;99.90;;;;;;4992884;28;20053;-81
2023/01/23 08:30:10;;;;;;;32.40;21.60;;;2.00;99.90;;;;;;4992856;28;20030;-81
2023/01/23 08:32:36;;;;;;;31.33;21.77;;;2.00;99.90;;;;;;4993531;28;20030;-81
2023/01/23 08:35:03;;;;;;;30.63;23.60;;;2.00;99.90;;;;;;4993147;28;20026;-81
2023/01/23 08:37:29;;;;;;;34.00;23.50;;;2.10;99.90;;;;;;4993638;28;20026;-81
2023/01/23 08:39:55;;;;;;;28.63;21.90;;;2.00;99.90;;;;;;4993154;28;20030;-81
2023/01/23 08:42:22;;;;;;;29.77;24.07;;;2.10;99.90;;;;;;4992757;28;20033;-81
2023/01/23 08:44:48;;;;;;;31.00;24.37;;;2.10;99.90;;;;;;5024684;28;20034;-81
2023/01/23 08:47:14;;;;;;;30.03;23.43;;;2.10;99.90;;;;;;4992583;28;20035;-81
2023/01/23 08:49:40;;;;;;;31.43;23.63;;;2.20;99.90;;;;;;4993074;28;20046;-81
2023/01/23 08:52:06;;;;;;;32.83;23.27;;;2.30;99.90;;;;;;4993095;28;20035;-81
2023/01/23 08:54:32;;;;;;;37.27;24.53;;;2.30;99.90;;;;;;4992979;28;20511;-81
2023/01/23 08:56:58;;;;;;;29.97;21.90;;;2.30;99.90;;;;;;5024310;28;20041;-80
2023/01/23 08:59:24;;;;;;;14.10;12.67;;;2.30;99.90;;;;;;4993020;28;20379;-81
2023/01/23 09:01:50;;;;;;;325.77;38.63;;;2.20;99.90;;;;;;4992544;28;20373;-81
2023/01/23 09:04:17;;;;;;;31.60;23.87;;;2.20;99.90;;;;;;4992817;28;20034;-81
2023/01/23 09:06:43;;;;;;;30.63;23.47;;;2.20;99.90;;;;;;4992878;28;20041;-81
2023/01/23 09:09:09;;;;;;;31.33;23.87;;;2.30;99.90;;;;;;4992940;28;20049;-81
2023/01/23 09:11:35;;;;;;;29.60;24.03;;;2.30;99.90;;;;;;5024355;28;20031;-81
2023/01/23 09:14:01;;;;;;;32.30;23.63;;;2.30;99.90;;;;;;4995686;28;20030;-81
2023/01/23 09:16:27;;;;;;;32.40;23.93;;;2.40;99.90;;;;;;4996371;28;20488;-82
2023/01/23 09:18:54;;;;;;;32.77;24.53;;;2.50;99.90;;;;;;5028091;28;20037;-81
2023/01/23 09:21:20;;;;;;;37.90;24.33;;;2.50;99.90;;;;;;5011750;28;20050;-81
2023/01/23 09:23:46;;;;;;;34.00;25.10;;;2.50;99.90;;;;;;4994897;28;20046;-81
2023/01/23 09:26:13;;;;;;;36.43;25.50;;;2.50;99.90;;;;;;4996510;28;20045;-81
2023/01/23 09:28:41;;;;;;;34.87;25.60;;;2.50;99.90;;;;;;5027947;28;20057;-81
2023/01/23 09:31:09;;;;;;;16.10;14.57;;;2.60;99.90;;;;;;5027396;28;20127;-81
2023/01/23 09:33:35;;;;;;;30.03;23.27;;;2.60;99.90;;;;;;5011366;28;20026;-81
2023/01/23 09:36:03;;;;;;;144.57;29.53;;;2.50;99.90;;;;;;5011615;28;20049;-81
2023/01/23 09:38:29;;;;;;;25.83;19.60;;;2.60;99.90;;;;;;5011271;28;20026;-81
2023/01/23 09:40:58;;;;;;;25.63;21.13;;;2.60;99.90;;;;;;5028041;28;20030;-81
2023/01/23 09:43:30;;;;;;;17.43;15.70;;;2.50;99.90;;;;;;5011393;28;20032;-81
2023/01/23 09:46:19;;;;;;;26.47;21.07;;;2.60;99.90;;;;;;4995647;28;20491;-81
2023/01/23 09:48:47;;;;;;;34.00;21.93;;;2.60;99.90;;;;;;5027799;28;20022;-81
2023/01/23 09:51:30;;;;;;;32.53;24.03;;;2.50;99.90;;;;;;5010947;28;20033;-81
2023/01/23 09:54:19;;;;;;;21.03;17.63;;;2.60;99.90;;;;;;5008873;28;20019;-81
2023/01/23 09:56:45;;;;;;;33.73;24.10;;;2.60;99.90;;;;;;4998187;28;20038;-81
2023/01/23 09:59:31;;;;;;;16.53;14.97;;;2.60;99.90;;;;;;4995979;28;20027;-81
2023/01/23 10:01:57;;;;;;;31.67;22.57;;;2.60;99.90;;;;;;5026182;28;20035;-80
2023/01/23 10:04:23;;;;;;;16.83;13.43;;;2.60;99.90;;;;;;5010927;28;20023;-80
2023/01/23 10:06:49;;;;;;;33.97;23.10;;;2.70;99.90;;;;;;4995896;28;20049;-81
2023/01/23 10:09:25;;;;;;;34.97;24.63;;;2.70;99.90;;;;;;5026855;28;20030;-80
2023/01/23 10:11:51;;;;;;;27.97;18.63;;;2.70;99.90;;;;;;5027439;28;20022;-81
2023/01/23 10:14:45;;;;;;;39.80;24.93;;;2.70;99.90;;;;;;4995716;28;20399;-80
2023/01/23 10:17:29;;;;;;;33.80;24.20;;;2.80;99.90;;;;;;5026538;28;20032;-81
2023/01/23 10:20:20;;;;;;;30.60;22.33;;;2.90;99.90;;;;;;4995406;28;20031;-81
2023/01/23 10:22:59;;;;;;;30.77;22.13;;;2.90;99.90;;;;;;4980121;28;20522;-81
2023/01/23 10:25:26;;;;;;;34.27;22.67;;;3.00;99.90;;;;;;4994721;28;20035;-80
2023/01/23 10:27:56;;;;;;;38.03;26.83;;;2.90;99.90;;;;;;4994160;28;20046;-80
2023/01/23 10:30:30;;;;;;;20.33;18.17;;;3.00;99.90;;;;;;5009938;28;20038;-81
2023/01/23 10:33:12;;;;;;;38.90;24.20;;;3.10;99.90;;;;;;5027008;28;20022;-81
2023/01/23 10:36:00;;;;;;;39.07;27.70;;;3.20;99.90;;;;;;4993058;28;20484;-81
2023/01/23 10:38:45;;;;;;;21.97;17.57;;;3.20;99.90;;;;;;5009743;28;20049;-81
2023/01/23 10:41:18;;;;;;;35.37;22.73;;;3.40;99.90;;;;;;5009945;28;20054;-80
2023/01/23 10:43:52;;;;;;;34.60;23.30;;;3.30;99.90;;;;;;5009227;28;20487;-80
2023/01/23 10:46:21;;;;;;;25.33;20.30;;;3.30;99.90;;;;;;5010012;28;20046;-81
2023/01/23 10:48:51;;;;;;;24.03;16.47;;;3.40;99.90;;;;;;5026270;28;20029;-81
2023/01/23 10:51:44;;;;;;;18.40;16.43;;;3.40;99.90;;;;;;5026422;28;20037;-80
2023/01/23 10:54:12;;;;;;;26.37;18.63;;;3.60;99.90;;;;;;4995474;28;20043;-80
2023/01/23 10:56:57;;;;;;;33.70;23.13;;;3.60;99.90;;;;;;5026584;28;20464;-81
2023/01/23 10:59:30;;;;;;;21.03;17.70;;;3.50;99.90;;;;;;5026461;28;20045;-80
2023/01/23 11:02:00;;;;;;;26.37;20.17;;;3.60;99.90;;;;;;5024670;28;20054;-83
2023/01/23 11:04:28;;;;;;;28.88;21.58;;;3.50;99.90;;;;;;5026362;28;20486;-82
2023/01/23 11:07:11;;;;;;;23.57;19.37;;;3.40;99.90;;;;;;5009485;28;20365;-82
2023/01/23 11:09:52;;;;;;;33.77;24.67;;;3.40;99.90;;;;;;5026254;28;20034;-83
2023/01/23 11:12:23;;;;;;;36.35;22.73;;;3.40;99.90;;;;;;4994791;28;20049;-83
2023/01/23 11:14:49;;;;;;;33.83;23.65;;;3.40;99.90;;;;;;5009662;28;20027;-83
2023/01/23 11:17:17;;;;;;;39.47;26.27;;;3.50;99.90;;;;;;4992274;28;20034;-80
2023/01/23 11:19:44;;;;;;;24.17;19.43;;;3.50;99.90;;;;;;5025769;28;20026;-80
2023/01/23 11:22:35;;;;;;;19.30;16.97;;;3.50;99.90;;;;;;4993562;28;20022;-80
2023/01/23 11:25:16;;;;;;;20.00;16.58;;;3.50;99.90;;;;;;4993173;28;20027;-80
2023/01/23 11:27:43;;;;;;;20.75;18.15;;;3.40;99.90;;;;;;4992950;28;20054;-80
2023/01/23 11:30:34;;;;;;;17.87;15.37;;;3.40;99.90;;;;;;5008660;28;20034;-82
2023/01/23 11:33:28;;;;;;;30.30;22.23;;;3.30;99.90;;;;;;4994432;28;20034;-83
2023/01/23 11:36:12;;;;;;;20.00;16.63;;;3.40;99.90;;;;;;5005772;28;20034;-83
2023/01/23 11:39:12;;;;;;;26.97;20.00;;;3.40;99.90;;;;;;5009278;28;20030;-82
2023/01/23 11:41:38;;;;;;;23.93;17.27;;;3.30;99.90;;;;;;4993008;28;20030;-80
2023/01/23 11:44:07;;;;;;;33.37;22.80;;;3.30;99.90;;;;;;5008914;28;20037;-80
2023/01/23 11:46:48;;;;;;;28.87;17.13;;;3.40;99.90;;;;;;5008671;28;20042;-80
2023/01/23 11:49:32;;;;;;;39.10;26.07;;;3.40;99.90;;;;;;4993619;28;20041;-80
2023/01/23 11:52:16;;;;;;;24.30;17.93;;;3.40;99.90;;;;;;5025401;28;20046;-80
2023/01/23 11:55:14;;;;;;;28.97;21.47;;;3.50;99.90;;;;;;4993827;28;20372;-80
2023/01/23 11:58:13;;;;;;;20.27;16.53;;;3.50;99.90;;;;;;4993105;28;20534;-80
2023/01/23 12:00:51;;;;;;;31.93;22.17;;;3.30;99.90;;;;;;5024973;28;20031;-80
2023/01/23 12:03:39;;;;;;;30.20;24.27;;;3.30;99.90;;;;;;5024692;28;20484;-80
2023/01/23 12:06:10;;;;;;;29.60;23.47;;;3.40;99.90;;;;;;4993660;28;20039;-81
2023/01/23 12:08:46;;;;;;;28.93;21.93;;;3.50;99.90;;;;;;4993590;28;20022;-80
2023/01/23 12:11:15;;;;;;;26.63;19.67;;;3.50;99.90;;;;;;5023488;28;20054;-80
2023/01/23 12:13:50;;;;;;;36.20;23.97;;;3.50;99.90;;;;;;4991691;28;20046;-80
2023/01/23 12:16:16;;;;;;;18.53;14.83;;;3.40;99.90;;;;;;4993184;28;20043;-80
2023/01/23 12:19:01;;;;;;;19.00;17.07;;;3.40;99.90;;;;;;4993145;28;20053;-80
2023/01/23 12:21:50;;;;;;;27.20;21.10;;;3.40;99.90;;;;;;4993480;28;20053;-80
2023/01/23 12:24:40;;;;;;;16.03;14.23;;;3.40;99.90;;;;;;4992439;28;20039;-80
2023/01/23 12:27:33;;;;;;;19.90;17.73;;;3.40;99.90;;;;;;4993285;28;20042;-80
2023/01/23 12:30:12;;;;;;;15.97;14.40;;;3.40;99.90;;;;;;4993412;28;20617;-81
2023/01/23 12:33:07;;;;;;;16.70;14.67;;;3.40;99.90;;;;;;5006948;28;20038;-80
2023/01/23 12:35:43;;;;;;;26.03;20.27;;;3.40;99.90;;;;;;4993301;28;20487;-80
2023/01/23 12:38:34;;;;;;;26.97;18.83;;;3.30;99.90;;;;;;4993282;28;20034;-80
2023/01/23 12:41:33;;;;;;;33.23;24.10;;;3.40;99.90;;;;;;5024935;28;20029;-80
2023/01/23 12:44:17;;;;;;;22.30;18.37;;;3.40;99.90;;;;;;4993010;28;20031;-80
2023/01/23 12:46:50;;;;;;;29.40;23.43;;;3.50;99.90;;;;;;5006446;28;20051;-81
2023/01/23 12:49:18;;;;;;;26.63;19.33;;;3.50;99.90;;;;;;5024216;28;20365;-80
2023/01/23 12:51:46;;;;;;;25.73;20.47;;;3.50;99.90;;;;;;4993122;28;20034;-81
2023/01/23 12:54:16;;;;;;;27.40;21.00;;;3.50;99.90;;;;;;5007840;28;20239;-80
2023/01/23 12:56:42;;;;;;;33.73;19.17;;;3.40;99.90;;;;;;5007893;28;20041;-81